createdAt,value
2017-12-20T00:00:37.803Z,13.10
2017-12-20T00:03:07.065Z,15.90
2017-12-20T00:05:36.255Z,12.83
2017-12-20T00:08:05.527Z,13.47
2017-12-20T00:10:34.706Z,14.07
2017-12-20T00:13:05.357Z,17.20
2017-12-20T00:15:37.483Z,11.70
2017-12-20T00:18:06.697Z,11.23
2017-12-20T00:20:35.879Z,13.13
2017-12-20T00:23:05.078Z,12.53
2017-12-20T00:25:34.283Z,12.30
2017-12-20T00:28:03.499Z,13.10
2017-12-20T00:30:32.745Z,12.87
2017-12-20T00:33:01.956Z,13.07
2017-12-20T00:35:31.146Z,13.67
2017-12-20T00:38:00.359Z,12.30
2017-12-20T00:40:29.808Z,13.20
2017-12-20T00:42:59.907Z,16.23
2017-12-20T00:45:29.127Z,11.17
2017-12-20T00:47:59.088Z,12.80
2017-12-20T00:50:28.316Z,13.77
2017-12-20T00:52:57.492Z,11.63
2017-12-20T00:55:26.801Z,12.60
2017-12-20T00:57:55.983Z,12.50
2017-12-20T01:00:25.198Z,12.10
2017-12-20T01:02:54.503Z,13.97
2017-12-20T01:05:23.661Z,12.20
2017-12-20T01:07:52.861Z,12.20
2017-12-20T01:10:22.051Z,10.00
2017-12-20T01:12:51.270Z,12.13
2017-12-20T01:15:20.436Z,13.30
2017-12-20T01:17:49.647Z,11.83
2017-12-20T01:20:18.860Z,11.90
2017-12-20T01:22:48.051Z,11.60
2017-12-20T01:25:17.266Z,12.20
2017-12-20T01:27:46.465Z,12.90
2017-12-20T01:30:15.692Z,12.77
2017-12-20T01:32:45.807Z,12.67
2017-12-20T01:35:14.966Z,11.70
2017-12-20T01:37:44.180Z,12.87
2017-12-20T01:40:13.439Z,11.47
2017-12-20T01:42:42.634Z,8.57
2017-12-20T01:45:11.883Z,10.77
2017-12-20T01:47:41.058Z,12.40
2017-12-20T01:50:10.254Z,10.87
2017-12-20T01:52:39.551Z,10.70
2017-12-20T01:55:08.754Z,10.03
2017-12-20T01:57:37.947Z,11.80
2017-12-20T02:00:07.188Z,10.00
2017-12-20T02:02:36.379Z,11.53
2017-12-20T02:05:06.351Z,13.93
2017-12-20T02:07:35.560Z,11.97
2017-12-20T02:10:04.740Z,16.93
2017-12-20T02:12:33.956Z,11.47
2017-12-20T02:15:03.165Z,12.17
2017-12-20T02:17:32.387Z,12.30
2017-12-20T02:20:02.340Z,13.30
2017-12-20T02:22:31.520Z,11.17
2017-12-20T02:25:00.695Z,11.20
2017-12-20T02:27:30.775Z,14.50
2017-12-20T02:29:59.972Z,13.60
2017-12-20T02:32:29.155Z,12.50
2017-12-20T02:34:58.375Z,14.87
2017-12-20T02:37:27.564Z,13.17
2017-12-20T02:39:56.834Z,13.67
2017-12-20T02:42:26.031Z,14.37
2017-12-20T02:44:55.243Z,15.80
2017-12-20T02:47:24.428Z,12.20
2017-12-20T02:49:53.718Z,13.90
2017-12-20T02:52:22.894Z,15.77
2017-12-20T02:54:53.299Z,17.20
2017-12-20T02:57:22.490Z,17.40
2017-12-20T02:59:51.677Z,21.90
2017-12-20T03:02:20.939Z,20.30
2017-12-20T03:04:50.114Z,17.00
2017-12-20T03:07:20.303Z,18.43
2017-12-20T03:09:49.488Z,22.17
2017-12-20T03:12:18.687Z,22.50
2017-12-20T03:14:47.863Z,26.20
2017-12-20T03:17:17.915Z,23.73
2017-12-20T03:19:47.099Z,25.37
2017-12-20T03:22:16.324Z,25.23
2017-12-20T03:24:46.278Z,28.00
2017-12-20T03:27:15.544Z,25.23
2017-12-20T03:29:44.680Z,27.33
2017-12-20T03:32:14.718Z,28.37
2017-12-20T03:34:43.923Z,32.87
2017-12-20T03:37:13.143Z,36.60
2017-12-20T03:39:43.192Z,36.17
2017-12-20T03:42:12.379Z,35.53
2017-12-20T03:44:41.589Z,32.80
2017-12-20T03:47:10.835Z,38.30
2017-12-20T03:49:40.072Z,35.53
2017-12-20T03:52:09.259Z,38.10
2017-12-20T03:54:39.497Z,42.37
2017-12-20T03:57:08.675Z,35.80
2017-12-20T03:59:38.654Z,38.53
2017-12-20T04:02:07.846Z,43.10
2017-12-20T04:04:37.214Z,37.80
2017-12-20T04:07:06.439Z,36.43
2017-12-20T04:09:35.645Z,35.83
2017-12-20T04:12:04.851Z,38.67
2017-12-20T04:14:34.063Z,41.60
2017-12-20T04:17:04.049Z,37.63
2017-12-20T04:19:33.259Z,37.10
2017-12-20T04:22:02.514Z,35.37
2017-12-20T04:24:31.716Z,35.50
2017-12-20T04:27:00.951Z,37.90
2017-12-20T04:29:30.188Z,32.30
2017-12-20T04:32:00.187Z,35.80
2017-12-20T04:34:29.399Z,30.40
2017-12-20T04:36:58.836Z,30.73
2017-12-20T04:39:28.058Z,30.17
2017-12-20T04:41:57.244Z,30.50
2017-12-20T04:44:26.447Z,31.07
2017-12-20T04:46:55.778Z,34.93
2017-12-20T04:49:25.895Z,33.23
2017-12-20T04:51:56.053Z,30.00
2017-12-20T04:54:25.299Z,33.03
2017-12-20T04:56:54.508Z,31.13
2017-12-20T04:59:24.506Z,30.53
2017-12-20T05:01:54.007Z,31.50
2017-12-20T05:04:23.205Z,26.03
2017-12-20T05:06:52.412Z,28.77
2017-12-20T05:09:21.608Z,25.13
2017-12-20T05:11:51.119Z,27.63
2017-12-20T05:14:20.320Z,27.77
2017-12-20T05:16:49.518Z,26.57
2017-12-20T05:19:19.502Z,24.70
2017-12-20T05:21:48.735Z,28.07
2017-12-20T05:24:17.911Z,24.17
2017-12-20T05:26:47.103Z,27.53
2017-12-20T05:29:16.311Z,21.70
2017-12-20T05:31:45.503Z,23.80
2017-12-20T05:34:14.712Z,22.67
2017-12-20T05:36:44.061Z,23.93
2017-12-20T05:39:13.364Z,20.40
2017-12-20T05:41:42.557Z,21.77
2017-12-20T05:44:11.742Z,23.37
2017-12-20T05:46:40.955Z,21.63
2017-12-20T05:49:10.163Z,20.43
2017-12-20T05:51:39.350Z,21.87
2017-12-20T05:54:08.556Z,22.43
2017-12-20T05:56:37.806Z,24.10
2017-12-20T05:59:07.891Z,25.63
2017-12-20T06:01:37.114Z,22.13
2017-12-20T06:04:07.094Z,23.93
2017-12-20T06:06:36.322Z,25.67
2017-12-20T06:09:06.294Z,23.63
2017-12-20T06:11:35.501Z,26.03
2017-12-20T06:14:04.702Z,27.93
2017-12-20T06:16:33.886Z,26.13
2017-12-20T06:19:03.090Z,25.97
2017-12-20T06:21:32.311Z,26.20
2017-12-20T06:24:01.519Z,25.17
2017-12-20T06:26:30.794Z,25.10
2017-12-20T06:29:00.004Z,26.07
2017-12-20T06:31:29.202Z,27.57
2017-12-20T06:33:58.407Z,23.50
2017-12-20T06:36:27.615Z,23.90
2017-12-20T06:38:56.822Z,27.27
2017-12-20T06:41:26.790Z,22.80
2017-12-20T06:43:56.007Z,23.63
2017-12-20T06:46:25.344Z,24.00
2017-12-20T06:48:55.320Z,22.97
2017-12-20T06:51:24.524Z,23.10
2017-12-20T06:53:53.724Z,26.40
2017-12-20T06:56:22.934Z,23.50
2017-12-20T06:58:52.131Z,27.80
2017-12-20T07:01:22.199Z,25.60
2017-12-20T07:03:51.389Z,27.03
2017-12-20T07:06:20.604Z,28.17
2017-12-20T07:08:49.973Z,27.60
2017-12-20T07:11:19.168Z,26.57
2017-12-20T07:13:48.391Z,29.03
2017-12-20T07:16:17.602Z,30.87
2017-12-20T07:18:46.825Z,29.90
2017-12-20T07:21:16.024Z,29.23
2017-12-20T07:23:45.235Z,35.23
2017-12-20T07:26:15.208Z,31.77
2017-12-20T07:28:44.496Z,32.10
2017-12-20T07:31:13.788Z,31.40
2017-12-20T07:33:43.037Z,36.90
2017-12-20T07:36:12.282Z,29.80
2017-12-20T07:38:41.499Z,30.57
2017-12-20T07:41:10.698Z,36.33
2017-12-20T07:43:39.974Z,33.07
2017-12-20T07:46:09.167Z,34.83
2017-12-20T07:48:38.395Z,34.80
2017-12-20T07:51:07.618Z,32.33
2017-12-20T07:53:36.834Z,33.57
2017-12-20T07:56:06.811Z,27.63
2017-12-20T07:58:36.012Z,34.90
2017-12-20T08:01:05.213Z,36.40
2017-12-20T08:03:34.419Z,28.70
2017-12-20T08:06:03.630Z,32.93
2017-12-20T08:08:32.859Z,29.83
2017-12-20T08:11:02.013Z,33.87
2017-12-20T08:13:31.207Z,38.23
2017-12-20T08:16:00.410Z,34.93
2017-12-20T08:18:29.659Z,36.37
2017-12-20T08:20:58.887Z,36.37
2017-12-20T08:23:28.083Z,32.23
2017-12-20T08:25:57.286Z,34.20
2017-12-20T08:28:27.176Z,33.70
2017-12-20T08:30:56.391Z,37.23
2017-12-20T08:33:25.604Z,32.70
2017-12-20T08:35:54.767Z,36.07
2017-12-20T08:38:23.969Z,35.10
2017-12-20T08:40:53.159Z,38.53
2017-12-20T08:43:22.382Z,33.27
2017-12-20T08:45:51.654Z,38.57
2017-12-20T08:48:20.865Z,36.90
2017-12-20T08:50:50.072Z,32.67
2017-12-20T08:53:19.291Z,34.83
2017-12-20T08:55:49.256Z,32.13
2017-12-20T08:58:18.479Z,35.23
2017-12-20T09:00:47.682Z,31.77
2017-12-20T09:03:16.891Z,30.90
2017-12-20T09:05:46.151Z,28.77
2017-12-20T09:08:15.367Z,31.67
2017-12-20T09:10:44.568Z,29.90
2017-12-20T09:13:13.824Z,30.30
2017-12-20T09:15:43.038Z,29.50
2017-12-20T09:18:12.318Z,28.73
2017-12-20T09:20:41.518Z,28.80
2017-12-20T09:23:10.753Z,31.37
2017-12-20T09:25:39.931Z,27.20
2017-12-20T09:28:09.150Z,33.90
2017-12-20T09:30:38.350Z,31.17
2017-12-20T09:33:07.545Z,28.93
2017-12-20T09:35:36.730Z,31.10
2017-12-20T09:38:06.034Z,33.73
2017-12-20T09:40:35.214Z,33.13
2017-12-20T09:43:04.422Z,34.40
2017-12-20T09:45:33.649Z,31.30
2017-12-20T09:48:02.834Z,31.40
2017-12-20T09:50:32.047Z,35.67
2017-12-20T09:53:01.236Z,33.80
2017-12-20T09:55:30.450Z,29.13
2017-12-20T09:57:59.664Z,33.23
2017-12-20T10:00:29.648Z,36.63
2017-12-20T10:02:58.880Z,29.23
2017-12-20T10:05:28.074Z,34.07
2017-12-20T10:07:58.056Z,34.23
2017-12-20T10:10:27.339Z,31.40
2017-12-20T10:12:56.552Z,37.70
2017-12-20T10:15:25.770Z,41.30
2017-12-20T10:17:55.750Z,34.67
2017-12-20T10:20:24.955Z,36.70
2017-12-20T10:22:56.780Z,39.93
2017-12-20T10:25:25.984Z,34.97
2017-12-20T10:27:55.193Z,33.30
2017-12-20T10:30:24.492Z,30.37
2017-12-20T10:32:53.687Z,32.30
2017-12-20T10:35:22.876Z,28.47
2017-12-20T10:37:52.155Z,45.50
2017-12-20T10:40:21.392Z,29.07
2017-12-20T10:42:50.596Z,32.33
2017-12-20T10:45:19.822Z,27.33
2017-12-20T10:47:49.789Z,28.97
2017-12-20T10:50:19.016Z,28.67
2017-12-20T10:52:49.647Z,31.80
2017-12-20T10:55:18.853Z,36.60
2017-12-20T10:57:48.071Z,33.30
2017-12-20T11:00:18.037Z,34.77
2017-12-20T11:02:47.245Z,38.00
2017-12-20T11:05:16.578Z,35.27
2017-12-20T11:07:46.592Z,36.07
2017-12-20T11:10:16.581Z,33.93
2017-12-20T11:12:45.802Z,34.10
2017-12-20T11:15:15.804Z,39.47
2017-12-20T11:17:44.996Z,36.13
2017-12-20T11:20:14.190Z,39.33
2017-12-20T11:22:43.367Z,36.23
2017-12-20T11:25:12.580Z,37.27
2017-12-20T11:27:41.798Z,43.10
2017-12-20T11:30:11.796Z,38.20
2017-12-20T11:32:41.002Z,39.00
2017-12-20T11:35:10.487Z,43.03
2017-12-20T11:37:39.714Z,43.97
2017-12-20T11:40:08.923Z,41.33
2017-12-20T11:42:38.959Z,38.17
2017-12-20T11:45:08.107Z,46.43
2017-12-20T11:47:37.321Z,47.13
2017-12-20T11:50:06.516Z,50.60
2017-12-20T11:52:36.602Z,50.20
2017-12-20T11:55:05.786Z,45.17
2017-12-20T11:57:35.054Z,50.93
2017-12-20T12:00:04.324Z,50.83
2017-12-20T12:02:33.646Z,54.40
2017-12-20T12:05:02.819Z,50.10
2017-12-20T12:07:32.057Z,50.70
2017-12-20T12:10:01.282Z,45.23
2017-12-20T12:12:30.475Z,52.87
2017-12-20T12:14:59.694Z,49.20
2017-12-20T12:17:28.888Z,57.63
2017-12-20T12:19:58.131Z,48.47
2017-12-20T12:22:28.075Z,49.77
2017-12-20T12:24:57.286Z,54.20
2017-12-20T12:27:26.552Z,50.37
2017-12-20T12:29:55.760Z,53.30
2017-12-20T12:32:24.951Z,52.37
2017-12-20T12:34:54.291Z,42.13
2017-12-20T12:37:23.479Z,43.73
2017-12-20T12:39:52.693Z,41.23
2017-12-20T12:42:21.896Z,49.80
2017-12-20T12:44:51.098Z,52.67
2017-12-20T12:47:20.361Z,48.80
2017-12-20T12:49:49.630Z,49.87
2017-12-20T12:52:19.626Z,45.17
2017-12-20T12:54:49.643Z,64.07
2017-12-20T12:57:19.627Z,51.57
2017-12-20T12:59:48.840Z,51.90
2017-12-20T13:02:18.067Z,42.27
2017-12-20T13:04:47.283Z,55.33
2017-12-20T13:07:16.502Z,52.10
2017-12-20T13:09:45.711Z,56.43
2017-12-20T13:12:14.906Z,54.47
2017-12-20T13:14:44.107Z,49.07
2017-12-20T13:17:13.334Z,49.00
2017-12-20T13:19:43.319Z,52.00
2017-12-20T13:22:12.561Z,49.37
2017-12-20T13:24:42.566Z,60.67
2017-12-20T13:27:12.583Z,53.93
2017-12-20T13:29:41.824Z,54.83
2017-12-20T13:32:11.046Z,57.20
2017-12-20T13:34:40.302Z,62.53
2017-12-20T13:37:09.519Z,57.13
2017-12-20T13:39:38.769Z,59.97
2017-12-20T13:42:08.040Z,58.40
2017-12-20T13:44:37.219Z,73.93
2017-12-20T13:47:06.424Z,68.87
2017-12-20T13:49:35.647Z,64.47
2017-12-20T13:52:04.867Z,57.53
2017-12-20T13:54:34.866Z,72.67
2017-12-20T13:57:04.070Z,65.47
2017-12-20T13:59:33.286Z,64.90
2017-12-20T14:02:02.553Z,70.60
2017-12-20T14:04:31.782Z,72.27
2017-12-20T14:07:01.003Z,59.50
2017-12-20T14:09:30.279Z,70.57
2017-12-20T14:12:00.234Z,55.87
2017-12-20T14:14:29.484Z,63.67
2017-12-20T14:16:58.661Z,66.07
2017-12-20T14:19:27.846Z,60.93
2017-12-20T14:21:57.072Z,51.37
2017-12-20T14:24:26.259Z,62.67
2017-12-20T14:26:55.466Z,57.23
2017-12-20T14:29:25.424Z,66.10
2017-12-20T14:31:54.632Z,60.13
2017-12-20T14:34:23.884Z,61.53
2017-12-20T14:36:53.219Z,58.97
2017-12-20T14:39:22.461Z,52.17
2017-12-20T14:41:52.471Z,65.50
2017-12-20T14:44:21.799Z,49.93
2017-12-20T14:46:51.793Z,51.40
2017-12-20T14:49:20.990Z,48.07
2017-12-20T14:51:50.198Z,47.93
2017-12-20T14:54:20.288Z,56.17
2017-12-20T14:56:49.463Z,48.77
2017-12-20T14:59:18.700Z,41.53
2017-12-20T15:01:47.911Z,54.43
2017-12-20T15:04:17.932Z,48.40
2017-12-20T15:06:47.151Z,55.00
2017-12-20T15:09:16.419Z,43.77
2017-12-20T15:11:45.699Z,47.53
2017-12-20T15:14:14.942Z,52.37
2017-12-20T15:16:44.171Z,57.10
2017-12-20T15:19:13.390Z,56.50
2017-12-20T15:21:43.362Z,63.77
2017-12-20T15:24:12.613Z,55.30
2017-12-20T15:26:41.827Z,55.63
2017-12-20T15:29:11.816Z,69.03
2017-12-20T15:31:41.009Z,59.50
2017-12-20T15:34:10.208Z,62.50
2017-12-20T15:36:39.408Z,57.70
2017-12-20T15:39:08.839Z,62.70
2017-12-20T15:41:38.799Z,57.30
2017-12-20T15:44:08.035Z,68.87
2017-12-20T15:46:37.223Z,61.10
2017-12-20T15:49:06.420Z,63.03
2017-12-20T15:51:35.647Z,56.47
2017-12-20T15:54:05.603Z,67.27
2017-12-20T15:56:34.807Z,75.43
2017-12-20T15:59:04.015Z,72.97
2017-12-20T16:01:33.242Z,63.57
2017-12-20T16:04:02.429Z,76.73
2017-12-20T16:06:31.650Z,62.00
2017-12-20T16:09:01.619Z,63.80
2017-12-20T16:11:30.871Z,60.60
2017-12-20T16:14:00.092Z,59.90
2017-12-20T16:16:29.319Z,59.53
2017-12-20T16:18:58.651Z,57.13
2017-12-20T16:21:28.616Z,60.47
2017-12-20T16:23:57.926Z,57.93
2017-12-20T16:26:27.243Z,68.63
2017-12-20T16:28:56.455Z,73.10
2017-12-20T16:31:25.745Z,58.20
2017-12-20T16:33:54.976Z,56.07
2017-12-20T16:36:24.926Z,57.73
2017-12-20T16:38:54.141Z,66.97
2017-12-20T16:41:23.357Z,71.07
2017-12-20T16:43:52.816Z,67.47
2017-12-20T16:46:22.036Z,68.53
2017-12-20T16:48:51.224Z,67.10
2017-12-20T16:51:20.451Z,70.90
2017-12-20T16:53:49.684Z,68.37
2017-12-20T16:56:18.910Z,73.93
2017-12-20T16:58:48.132Z,69.77
2017-12-20T17:01:17.363Z,72.60
2017-12-20T17:03:47.338Z,66.93
2017-12-20T17:06:16.586Z,68.77
2017-12-20T17:08:46.577Z,63.00
2017-12-20T17:11:15.799Z,62.50
2017-12-20T17:13:45.772Z,67.63
2017-12-20T17:16:14.968Z,76.10
2017-12-20T17:18:44.182Z,65.80
2017-12-20T17:21:13.445Z,73.20
2017-12-20T17:23:43.379Z,64.80
2017-12-20T17:26:12.615Z,59.43
2017-12-20T17:28:42.617Z,62.97
2017-12-20T17:31:11.835Z,73.90
2017-12-20T17:33:41.852Z,58.00
2017-12-20T17:36:11.863Z,66.10
2017-12-20T17:38:41.873Z,58.17
2017-12-20T17:41:11.101Z,54.60
2017-12-20T17:43:40.314Z,55.03
2017-12-20T17:46:09.527Z,51.27
2017-12-20T17:48:38.758Z,46.30
2017-12-20T17:51:08.002Z,53.10
2017-12-20T17:53:37.267Z,56.27
2017-12-20T17:56:07.252Z,55.80
2017-12-20T17:58:36.494Z,52.97
2017-12-20T18:01:05.703Z,58.53
2017-12-20T18:03:34.890Z,57.00
2017-12-20T18:06:04.109Z,57.83
2017-12-20T18:08:33.303Z,57.47
2017-12-20T18:11:02.516Z,47.90
2017-12-20T18:13:31.732Z,54.27
2017-12-20T18:16:00.972Z,49.03
2017-12-20T18:18:30.200Z,54.53
2017-12-20T18:20:59.424Z,55.50
2017-12-20T18:23:28.634Z,59.67
2017-12-20T18:25:57.856Z,55.07
2017-12-20T18:28:27.844Z,49.97
2017-12-20T18:30:57.079Z,49.37
2017-12-20T18:33:26.288Z,48.47
2017-12-20T18:35:55.494Z,46.57
2017-12-20T18:38:24.802Z,45.27
2017-12-20T18:40:54.029Z,43.27
2017-12-20T18:43:23.247Z,44.67
2017-12-20T18:45:53.269Z,42.67
2017-12-20T18:48:22.490Z,49.07
2017-12-20T18:50:51.699Z,48.43
2017-12-20T18:53:20.970Z,47.17
2017-12-20T18:55:50.937Z,52.23
2017-12-20T18:58:20.174Z,57.37
2017-12-20T19:00:49.367Z,55.63
2017-12-20T19:03:19.378Z,53.70
2017-12-20T19:05:48.620Z,51.80
2017-12-20T19:08:17.842Z,52.90
2017-12-20T19:10:47.055Z,57.40
2017-12-20T19:13:16.300Z,50.63
2017-12-20T19:15:45.570Z,51.97
2017-12-20T19:18:14.815Z,63.23
2017-12-20T19:20:44.047Z,57.50
2017-12-20T19:23:14.082Z,50.63
2017-12-20T19:25:44.070Z,65.97
2017-12-20T19:28:13.302Z,56.00
2017-12-20T19:30:42.586Z,61.60
2017-12-20T19:33:11.864Z,63.83
2017-12-20T19:35:41.142Z,52.80
2017-12-20T19:38:10.526Z,48.77
2017-12-20T19:40:39.815Z,48.83
2017-12-20T19:43:09.268Z,57.13
2017-12-20T19:45:38.611Z,59.63
2017-12-20T19:48:08.769Z,63.20
2017-12-20T19:50:38.092Z,50.47
2017-12-20T19:53:07.553Z,51.00
2017-12-20T19:55:37.888Z,54.03
2017-12-20T19:58:07.335Z,52.40
2017-12-20T20:00:36.715Z,57.73
2017-12-20T20:03:06.108Z,50.40
2017-12-20T20:05:35.519Z,53.37
2017-12-20T20:08:05.112Z,51.50
2017-12-20T20:10:34.536Z,48.40
2017-12-20T20:13:04.064Z,50.17
2017-12-20T20:15:34.474Z,57.27
2017-12-20T20:18:03.965Z,51.33
2017-12-20T20:20:33.740Z,59.17
2017-12-20T20:23:03.190Z,43.60
2017-12-20T20:25:32.742Z,52.07
2017-12-20T20:28:02.989Z,50.53
2017-12-20T20:30:32.692Z,48.40
2017-12-20T20:33:02.297Z,49.13
2017-12-20T20:35:31.938Z,45.50
2017-12-20T20:38:01.415Z,51.33
2017-12-20T20:40:31.003Z,49.53
2017-12-20T20:43:00.507Z,40.20
2017-12-20T20:45:30.180Z,50.90
2017-12-20T20:48:00.661Z,48.00
2017-12-20T20:50:30.241Z,46.83
2017-12-20T20:53:00.451Z,46.50
2017-12-20T20:55:30.135Z,39.70
2017-12-20T20:57:59.690Z,39.87
2017-12-20T21:00:29.178Z,39.47
2017-12-20T21:02:58.837Z,35.13
2017-12-20T21:05:28.279Z,36.80
2017-12-20T21:07:58.561Z,44.93
2017-12-20T21:10:27.879Z,42.80
2017-12-20T21:12:57.202Z,39.73
2017-12-20T21:15:26.476Z,49.33
2017-12-20T21:17:55.704Z,39.10
2017-12-20T21:20:25.749Z,37.93
2017-12-20T21:22:54.954Z,42.90
2017-12-20T21:25:24.236Z,43.13
2017-12-20T21:27:53.576Z,38.57
2017-12-20T21:30:22.835Z,45.03
2017-12-20T21:32:52.071Z,44.80
2017-12-20T21:35:21.300Z,43.50
2017-12-20T21:37:51.332Z,44.17
2017-12-20T21:40:20.472Z,46.03
2017-12-20T21:42:49.722Z,48.17
2017-12-20T21:45:19.691Z,40.50
2017-12-20T21:47:48.931Z,49.03
2017-12-20T21:50:18.951Z,46.20
2017-12-20T21:52:48.187Z,45.77
2017-12-20T21:55:17.399Z,45.40
2017-12-20T21:57:46.639Z,48.77
2017-12-20T22:00:16.710Z,39.67
2017-12-20T22:02:45.896Z,38.60
2017-12-20T22:05:15.167Z,41.37
2017-12-20T22:07:44.395Z,38.70
2017-12-20T22:10:13.599Z,45.60
2017-12-20T22:12:42.827Z,37.53
2017-12-20T22:15:12.842Z,39.53
2017-12-20T22:17:42.124Z,39.27
2017-12-20T22:20:11.492Z,39.60
2017-12-20T22:22:41.587Z,41.70
2017-12-20T22:25:11.611Z,41.07
2017-12-20T22:27:40.781Z,39.27
2017-12-20T22:30:10.011Z,37.53
2017-12-20T22:32:39.246Z,40.43
2017-12-20T22:35:08.441Z,34.30
2017-12-20T22:37:37.651Z,36.33
2017-12-20T22:40:06.912Z,34.27
2017-12-20T22:42:36.180Z,38.07
2017-12-20T22:45:06.371Z,33.63
2017-12-20T22:47:35.632Z,31.73
2017-12-20T22:50:05.115Z,33.50
2017-12-20T22:52:34.351Z,44.47
2017-12-20T22:55:03.624Z,37.70
2017-12-20T22:57:33.626Z,35.90
2017-12-20T23:00:02.858Z,41.97
2017-12-20T23:02:32.054Z,32.13
2017-12-20T23:05:01.367Z,33.23
2017-12-20T23:07:30.608Z,31.13
2017-12-20T23:09:59.865Z,29.97
2017-12-20T23:12:29.188Z,32.33
2017-12-20T23:14:58.387Z,27.40
2017-12-20T23:17:27.709Z,26.60
2017-12-20T23:19:57.702Z,25.70
2017-12-20T23:22:26.921Z,27.17
2017-12-20T23:24:57.080Z,31.23
2017-12-20T23:27:26.291Z,25.23
2017-12-20T23:29:55.499Z,25.83
2017-12-20T23:32:24.705Z,23.93
2017-12-20T23:34:53.941Z,26.67
2017-12-20T23:37:23.943Z,30.97
2017-12-20T23:39:53.947Z,24.70
2017-12-20T23:42:23.187Z,29.60
2017-12-20T23:44:52.398Z,23.27
2017-12-20T23:47:21.592Z,29.40
2017-12-20T23:49:50.814Z,26.07
2017-12-20T23:52:20.182Z,29.03
2017-12-20T23:54:49.435Z,25.03
2017-12-20T23:57:18.622Z,22.30
2017-12-20T23:59:47.845Z,28.30
